Historyczne dane pomiarowe

Dodano dane terminowe – wersja testowa.

Dane z okresu 1951-2019

Wersja bazy: 1.34 [2019-03-16, lista zmian], aktualizacja planowana na 2019-04-15

Dane meteo z obszaru Polski uzyskane na podstawie danych udostępnionych przez Instytut Meteorologii i Gospodarki Wodnej – Państwowy Instytut Badawczy.

 

Wybierz Datę:    

       

TemperaturaWilgotnośćWiatrCiśnienieOpadyŚniegCzas trwania zjawisk
 Stacja t tx tn tng RH VA  wxwx mslp ppp RRR   cm mm wxwxwxwxwxwxwx
1994-08-14 12.9 16.7 9.1 8.2 75.3- 4.3 4.3---- 0.4------------
1994-08-13 14.3 18.1 13.1 12.3 93.5- 5.7 2.3---- 9.9------------
1994-08-12 16.8 22.5 13.8 12.0 89.0- 5.7 0.7---- 11.1------------
1994-08-11 18.7 26.5 16.0 16.3 81.3- 7.7 0.7---- 62.8------------
1994-08-10 21.0 29.2 12.5 7.8 66.8- 3.0 0.7---- 0.0------------
1994-08-09 21.4 27.2 17.0 16.1 61.8- 5.3 1.0---- 0.0------------
1994-08-08 20.2 26.2 16.4 14.3 78.3- 6.7 1.0---- 0.0------------
1994-08-07 22.5 28.2 18.4 14.4 69.0- 6.0 0.0---- 0.6------------
1994-08-06 24.3 31.6 18.2 12.0 64.3- 4.3 2.0---- 0.0------------
1994-08-05 25.9 34.6 13.8 9.3 39.0- 0.0 0.7---- 0.0------------
1994-08-04 23.2 30.0 13.1 8.0 52.3- 0.0 0.3---- 0.0------------
1994-08-03 22.3 28.7 17.6 13.8 62.5- 2.0 2.0---- 0.0------------
1994-08-02 24.6 33.2 19.0 13.8 64.8- 3.0 2.3---- 0.0------------
1994-08-01 28.2 37.5 19.2 13.0 39.0- 0.0 1.3---- 0.0------------
1994-07-31 28.8 37.7 20.5 13.4 37.5- 0.7 2.3---- 0.0------------
1994-07-30 26.9 36.9 16.6 12.0 50.3- 0.3 0.7---- 0.0------------
1994-07-29 27.2 36.1 19.0 13.5 43.3- 3.3 0.0---- 0.0------------
1994-07-28 25.9 34.4 16.5 12.0 55.5- 0.3 0.7---- 0.0------------
1994-07-27 26.0 32.6 20.8 17.3 58.0- 3.3 0.0---- 0.0------------
1994-07-26 26.4 34.0 18.2 12.1 46.5- 3.0 0.7---- 0.0------------
1994-07-25 25.0 33.4 14.0 9.0 47.3- 2.7 0.3---- 0.0------------
1994-07-24 24.3 31.7 15.6 9.2 41.0- 0.0 1.0---- 0.0------------
1994-07-23 24.7 31.2 14.5 9.0 41.5- 0.7 1.0---- 0.0------------
1994-07-22 26.0 31.2 11.8 6.4 45.8- 1.0 1.3---- 0.0------------
1994-07-21 20.8 29.0 10.3 5.3 52.8- 0.0 0.7---- 0.0------------
1994-07-20 20.5 25.4 11.6 6.1 53.0- 0.3 2.0---- 0.0------------
1994-07-19 19.8 24.3 15.3 14.3 58.0- 5.3 2.7---- 0.0------------
1994-07-18 19.8 23.1 13.7 12.6 66.8- 5.0 1.3---- 0.0------------
1994-07-17 22.9 28.2 16.5 12.1 76.0- 5.3 0.7---- 0.7------------
1994-07-16 22.3 27.2 17.2 15.1 77.8- 1.3 1.7---- 0.0------------
1994-07-15 22.2 32.2 16.8 12.3 69.5- 3.7 0.3---- 0.0------------
1994-07-14 24.4 31.8 15.6 10.3 56.8- 0.7 1.0---- 0.0------------
1994-07-13 23.1 30.7 15.2 9.0 61.0- 1.3 0.7---- 0.0------------
1994-07-12 21.9 29.2 15.6 9.3 66.5- 2.3 1.7---- 0.0------------
1994-07-11 20.6 27.8 13.7 9.0 61.8- 0.3 0.3---- 0.0------------
1994-07-10 18.8 24.8 12.6 11.0 78.0- 5.7 1.0---- 0.0------------
1994-07-09 16.5 21.6 13.1 12.0 85.5- 6.7 2.3---- 0.0------------
1994-07-08 13.0 15.6 12.1 11.4 94.8- 8.0 2.7---- 2.0------------
1994-07-07 18.1 25.4 13.5 10.4 73.3- 6.3 0.3---- 8.7------------
1994-07-06 19.6 25.8 13.1 9.3 69.0- 4.0 0.0---- 0.0------------
1994-07-05 19.8 26.2 16.5 14.0 67.3- 5.7 1.0---- 0.0------------
1994-07-04 23.4 31.2 15.5 11.6 57.0- 1.0 1.0---- 0.0------------
1994-07-03 22.4 29.4 13.6 7.2 52.3- 0.0 1.0---- 0.0------------
1994-07-02 19.6 26.2 9.8 5.4 60.8- 0.0 0.3---- 0.0------------
1994-07-01 18.0 23.9 9.9 4.8 68.5- 0.7 0.7---- 0.0------------
1994-06-30 19.0 26.7 15.5 15.3 74.0- 4.0 2.0---- 0.0------------
1994-06-29 26.2 33.2 21.5 19.4 64.5- 6.7 0.3---- 9.3------------
1994-06-28 24.6 30.8 17.8 16.4 64.5- 0.0 1.7---- 0.0------------
1994-06-27 23.7 31.2 13.7 2.4 70.3- 1.7 0.3---- 0.0------------
1994-06-26 23.7 30.9 12.1 6.6 63.0- 0.0 0.7---- 0.0------------
1994-06-25 19.0 26.8 8.7 1.7 51.8- 0.0 1.7---- 0.0------------
1994-06-24 14.1 19.3 5.6 1.1 53.8- 0.7 1.3---- 0.0------------
1994-06-23 16.0 21.1 11.3 8.3 53.5- 1.7 4.3---- 0.0------------
1994-06-22 19.6 23.1 16.4 12.1 70.0- 5.7 3.3---- 0.0------------
1994-06-21 16.8 23.3 8.1 2.4 70.3- 2.7 0.0---- 0.0------------
1994-06-20 16.6 22.3 13.8 10.1 73.5- 4.3 2.0---- 0.0------------
1994-06-19 17.3 23.9 12.4 11.4 74.0- 3.0 1.0---- 0.0------------
1994-06-18 12.8 19.1 5.3 -0.5 80.8- 7.7 1.0---- 11.3------------
1994-06-17 10.3 15.6 6.3 5.6 73.8- 4.0 1.0---- 0.0------------
1994-06-16 11.1 15.3 9.1 3.8 82.8- 8.0 1.3---- 4.4------------
280.8 ms

 

Źródłem pochodzenia danych jest Instytut Meteorologii i Gospodarki Wodnej – Państwowy Instytut Badawczy. Dane Instytutu Meteorologii i Gospodarki Wodnej – Państwowego Instytutu Badawczego zostały przetworzone.

Dane źródłowe można odnaleźć na stronie https://dane.imgw.pl